Rowena, Missouri
Current Conditions -  °F | °C
As of 12:54 PM on Thursday 23 Oct 2014 (Local Time) from KCOU Reporting Station
Overcast Overcast  
Wind Chill: 57°   Ceiling: 5500
Heat Index: 57°   Visibility: 10mi
Dew Point: 48°   Wind: 7mph
Humidity: 72%   Direction: 180°S
Pressure: 30.15"   Gusts: NA
Location:  39.2043°N, 92.1568°W
Report Text: KCOU 231754Z 18006KT 10SM SCT018 BKN055 OVC090 14/09 A3015 RMK AO2 SLP208 T01390089 10144 20083 58005
Loading
Personal Weather Stations






























Interactive Weather Map
Tropical Storm Tracking
New forecast layout! Learn more

10-Day Weather Forecast

Advertisements
Track Severe Weather on mobile